Morvin, Alabama
Current Conditions -  °F | °C
As of 6:35 PM on Saturday 25 Oct 2014 (Local Time) from KDYA Reporting Station
Clear Clear  
Wind Chill: 66°   Ceiling: Unl
Heat Index: 66°   Visibility: 10mi
Dew Point: 61°   Wind: 0mph
Humidity: 84%   Direction: NA
Pressure: 30.05"   Gusts: NA
Location:  31.99°N, 87.99°W
Report Text: KDYA 252335Z AUTO 00000KT 10SM CLR 19/16 A3005 RMK AO2 T01880160
Loading
Personal Weather Stations






























Interactive Weather Map
Tropical Storm Tracking
New forecast layout! Learn more

10-Day Weather Forecast

Advertisements
Track Severe Weather on mobile